Dededo, Guam
Current Conditions -  °F | °C
As of 3:54 AM on Sunday 26 Oct 2014 (Local Time) from PGUM Reporting Station
Clear Clear  
Wind Chill: 81°   Ceiling: Unl
Heat Index: 88°   Visibility: 10mi
Dew Point: 77°   Wind: 6mph
Humidity: 88%   Direction: 60°ENE
Pressure: 29.86"   Gusts: NA
Location:  13.51°N, 144.84°E
Report Text: PGUM 251754Z 06005KT 10SM CLR 27/25 A2986 RMK AO2 SLP104 T02720250 10272 20261 56009 $
Loading
Personal Weather Stations






























Interactive Weather Map
Tropical Storm Tracking
New forecast layout! Learn more

10-Day Weather Forecast

Advertisements
Track Severe Weather on mobile